createdAt,value
2023-04-18T00:01:00.024Z,9.00
2023-04-18T00:06:02.325Z,9.00
2023-04-18T00:11:04.896Z,9.00
2023-04-18T00:16:08.756Z,9.00
2023-04-18T00:21:10.524Z,9.00
2023-04-18T00:26:12.640Z,8.90
2023-04-18T00:31:14.917Z,8.80
2023-04-18T00:36:16.720Z,8.80
2023-04-18T00:41:19.394Z,8.70
2023-04-18T00:46:21.183Z,8.60
2023-04-18T00:51:23.177Z,8.40
2023-04-18T00:56:25.977Z,8.30
2023-04-18T01:01:28.022Z,8.30
2023-04-18T01:06:30.041Z,8.10
2023-04-18T01:11:32.458Z,7.90
2023-04-18T01:16:34.421Z,7.80
2023-04-18T01:21:37.456Z,7.60
2023-04-18T01:26:40.045Z,7.40
2023-04-18T01:31:42.373Z,7.20
2023-04-18T01:36:44.326Z,7.10
2023-04-18T01:41:46.109Z,6.80
2023-04-18T01:46:47.908Z,6.60
2023-04-18T01:51:49.749Z,6.50
2023-04-18T01:56:51.477Z,6.40
2023-04-18T02:01:53.229Z,6.30
2023-04-18T02:06:55.258Z,6.20
2023-04-18T02:11:59.356Z,6.30
2023-04-18T02:17:01.141Z,6.20
2023-04-18T02:22:02.858Z,6.20
2023-04-18T02:27:04.593Z,6.20
2023-04-18T02:32:06.963Z,6.10
2023-04-18T02:37:08.779Z,6.00
2023-04-18T02:42:10.503Z,5.90
2023-04-18T02:47:12.279Z,6.00
2023-04-18T02:52:14.883Z,6.00
2023-04-18T02:57:16.635Z,6.20
2023-04-18T03:02:18.778Z,6.30
2023-04-18T03:07:20.600Z,6.50
2023-04-18T03:12:22.324Z,6.60
2023-04-18T03:17:24.248Z,6.60
2023-04-18T03:22:26.060Z,6.80
2023-04-18T03:27:28.046Z,6.80
2023-04-18T03:32:30.121Z,6.90
2023-04-18T03:37:31.996Z,6.90
2023-04-18T03:42:33.785Z,7.00
2023-04-18T03:47:35.596Z,7.00
2023-04-18T03:52:37.362Z,7.00
2023-04-18T03:57:40.846Z,7.10
2023-04-18T04:02:43.661Z,7.40
2023-04-18T04:07:45.556Z,8.30
2023-04-18T04:12:47.364Z,9.70
2023-04-18T04:17:50.237Z,10.70
2023-04-18T04:22:55.486Z,11.20
2023-04-18T04:27:57.306Z,11.10
2023-04-18T04:32:59.934Z,11.50
2023-04-18T04:38:01.729Z,12.00
2023-04-18T04:43:03.655Z,12.10
2023-04-18T04:48:06.087Z,12.20
2023-04-18T04:53:11.788Z,12.30
2023-04-18T04:58:13.626Z,13.20
2023-04-18T05:03:16.002Z,15.20
2023-04-18T05:08:17.893Z,17.20
2023-04-18T05:13:19.657Z,18.50
2023-04-18T05:18:21.450Z,18.80
2023-04-18T05:23:23.175Z,19.60
2023-04-18T05:28:27.100Z,20.70
2023-04-18T05:33:32.881Z,20.30
2023-04-18T05:38:34.622Z,20.60
2023-04-18T05:43:36.337Z,20.60
2023-04-18T05:48:39.255Z,21.90
2023-04-18T05:53:41.004Z,21.70
2023-04-18T05:58:42.760Z,21.60
2023-04-18T06:03:44.813Z,20.90
2023-04-18T06:08:46.719Z,19.50
2023-04-18T06:13:48.700Z,18.30
2023-04-18T06:18:50.688Z,17.30
2023-04-18T06:23:52.385Z,16.30
2023-04-18T06:28:54.307Z,16.90
2023-04-18T06:33:56.204Z,18.70
2023-04-18T06:38:58.194Z,19.80
2023-04-18T06:44:04.142Z,24.40
2023-04-18T06:49:06.523Z,27.00
2023-04-18T06:54:08.228Z,27.80
2023-04-18T06:59:10.320Z,25.50
2023-04-18T07:04:12.171Z,25.40
2023-04-18T07:09:14.289Z,25.40
2023-04-18T07:14:16.209Z,27.20
2023-04-18T07:19:18.222Z,27.20
2023-04-18T07:24:19.985Z,27.60
2023-04-18T07:29:21.721Z,27.40
2023-04-18T07:34:23.790Z,28.40
2023-04-18T07:39:25.561Z,28.40
2023-04-18T07:44:27.322Z,29.30
2023-04-18T07:49:29.122Z,29.70
2023-04-18T07:54:31.215Z,29.50
2023-04-18T07:59:33.056Z,28.80
2023-04-18T08:04:35.058Z,27.10
2023-04-18T08:09:36.870Z,24.90
2023-04-18T08:14:38.631Z,25.40
2023-04-18T08:19:40.327Z,27.50
2023-04-18T08:24:51.329Z,28.50
2023-04-18T08:30:04.785Z,28.50
2023-04-18T08:35:06.925Z,24.70
2023-04-18T08:40:09.351Z,24.70
2023-04-18T08:45:14.199Z,26.50
2023-04-18T08:50:17.272Z,27.40
2023-04-18T08:55:19.470Z,28.00
2023-04-18T09:00:22.719Z,26.80
2023-04-18T09:05:26.882Z,25.80
2023-04-18T09:10:33.325Z,23.70
2023-04-18T09:15:35.197Z,23.30
2023-04-18T09:20:41.428Z,22.90
2023-04-18T09:25:46.793Z,23.50
2023-04-18T09:30:51.458Z,22.10
2023-04-18T09:35:53.410Z,23.70
2023-04-18T09:41:09.339Z,22.30
2023-04-18T09:46:12.593Z,22.30
2023-04-18T09:51:18.465Z,23.00
2023-04-18T09:56:27.699Z,21.70
2023-04-18T10:01:29.862Z,22.80
2023-04-18T10:06:34.572Z,23.00
2023-04-18T10:11:36.970Z,21.60
2023-04-18T10:16:39.561Z,20.10
2023-04-18T10:21:51.748Z,18.70
2023-04-18T10:26:53.526Z,17.20
2023-04-18T10:31:55.647Z,16.70
2023-04-18T10:37:05.412Z,16.50
2023-04-18T10:42:07.291Z,15.60
2023-04-18T10:47:09.081Z,15.80
2023-04-18T10:57:13.884Z,16.00
2023-04-18T11:02:26.178Z,15.30
2023-04-18T11:07:38.780Z,15.20
2023-04-18T11:12:41.731Z,15.70
2023-04-18T11:17:44.671Z,16.00
2023-04-18T11:22:53.350Z,15.40
2023-04-18T11:27:58.180Z,15.60
2023-04-18T11:33:04.538Z,15.30
2023-04-18T11:38:07.436Z,14.40
2023-04-18T11:43:09.175Z,14.40
2023-04-18T11:48:11.410Z,14.10
2023-04-18T11:53:13.150Z,14.20
2023-04-18T11:58:15.077Z,14.40
2023-04-18T12:03:18.817Z,15.10
2023-04-18T12:08:21.318Z,14.30
2023-04-18T12:13:31.247Z,14.80
2023-04-18T12:18:32.999Z,14.80
2023-04-18T12:23:41.882Z,14.80
2023-04-18T12:28:51.154Z,14.00
2023-04-18T12:33:52.937Z,13.80
2023-04-18T12:38:54.741Z,13.20
2023-04-18T12:43:56.458Z,13.40
2023-04-18T12:48:58.527Z,13.60
2023-04-18T12:54:00.582Z,14.20
2023-04-18T12:59:02.388Z,14.20
2023-04-18T13:04:12.374Z,14.10
2023-04-18T13:09:15.005Z,14.10
2023-04-18T13:14:16.865Z,14.10
2023-04-18T13:19:18.594Z,13.20
2023-04-18T13:24:20.361Z,12.90
2023-04-18T13:29:22.133Z,13.00
2023-04-18T13:34:23.830Z,13.30
2023-04-18T13:39:26.064Z,12.80
2023-04-18T13:44:27.824Z,12.90
2023-04-18T13:49:29.751Z,12.60
2023-04-18T13:54:32.364Z,12.60
2023-04-18T13:59:34.095Z,13.00
2023-04-18T14:04:36.663Z,12.60
2023-04-18T14:09:38.725Z,12.70
2023-04-18T14:14:40.677Z,13.10
2023-04-18T14:19:42.498Z,12.40
2023-04-18T14:24:44.481Z,12.30
2023-04-18T14:29:47.988Z,12.70
2023-04-18T14:34:49.749Z,12.50
2023-04-18T14:39:51.776Z,12.20
2023-04-18T14:44:54.277Z,12.40
2023-04-18T14:49:56.203Z,12.10
2023-04-18T14:54:58.029Z,12.10
2023-04-18T15:00:00.158Z,12.00
2023-04-18T15:05:02.303Z,11.90
2023-04-18T15:10:07.420Z,11.90
2023-04-18T15:15:11.383Z,11.90
2023-04-18T15:20:13.213Z,12.00
2023-04-18T15:25:16.753Z,11.80
2023-04-18T15:30:18.919Z,11.80
2023-04-18T15:35:20.961Z,12.00
2023-04-18T15:40:23.332Z,11.80
2023-04-18T15:45:25.415Z,11.70
2023-04-18T15:50:27.162Z,11.80
2023-04-18T15:55:28.976Z,11.70
2023-04-18T16:00:30.804Z,11.50
2023-04-18T16:05:32.794Z,11.50
2023-04-18T16:10:35.735Z,11.30
2023-04-18T16:15:43.599Z,11.30
2023-04-18T16:20:45.373Z,11.30
2023-04-18T16:25:47.214Z,11.10
2023-04-18T16:30:49.155Z,11.10
2023-04-18T16:35:51.205Z,11.00
2023-04-18T16:40:56.440Z,10.90
2023-04-18T16:46:00.248Z,10.70
2023-04-18T16:51:02.082Z,10.80
2023-04-18T16:56:04.101Z,10.80
2023-04-18T17:01:08.128Z,10.80
2023-04-18T17:06:09.971Z,10.70
2023-04-18T17:11:11.702Z,10.60
2023-04-18T17:16:13.521Z,10.60
2023-04-18T17:21:15.370Z,10.50
2023-04-18T17:26:17.197Z,10.60
2023-04-18T17:31:18.948Z,10.50
2023-04-18T17:36:20.838Z,10.50
2023-04-18T17:41:22.850Z,10.40
2023-04-18T17:46:24.626Z,10.40
2023-04-18T17:51:27.404Z,10.30
2023-04-18T17:56:30.616Z,10.30
2023-04-18T18:01:32.905Z,10.30
2023-04-18T18:06:34.727Z,10.30
2023-04-18T18:11:36.435Z,10.30
2023-04-18T18:16:39.685Z,10.30
2023-04-18T18:21:41.433Z,10.40
2023-04-18T18:26:43.144Z,10.30
2023-04-18T18:31:45.203Z,10.20
2023-04-18T18:36:47.426Z,10.20
2023-04-18T18:41:49.611Z,10.10
2023-04-18T18:46:51.730Z,10.10
2023-04-18T18:51:53.828Z,10.10
2023-04-18T18:56:55.582Z,10.00
2023-04-18T19:01:57.573Z,10.00
2023-04-18T19:06:59.693Z,9.90
2023-04-18T19:12:01.547Z,9.80
2023-04-18T19:17:03.349Z,9.70
2023-04-18T19:22:06.720Z,9.70
2023-04-18T19:27:08.505Z,9.70
2023-04-18T19:32:10.577Z,9.70
2023-04-18T19:37:12.281Z,9.60
2023-04-18T19:42:14.219Z,9.60
2023-04-18T19:47:15.915Z,9.60
2023-04-18T19:52:18.469Z,9.60
2023-04-18T19:57:20.257Z,9.50
2023-04-18T20:02:21.986Z,9.60
2023-04-18T20:07:26.275Z,9.50
2023-04-18T20:12:28.432Z,9.40
2023-04-18T20:17:30.524Z,9.30
2023-04-18T20:22:32.545Z,9.20
2023-04-18T20:27:34.390Z,9.30
2023-04-18T20:32:36.880Z,9.30
2023-04-18T20:37:39.134Z,9.20
2023-04-18T20:42:41.081Z,9.10
2023-04-18T20:47:43.206Z,9.20
2023-04-18T20:52:44.991Z,9.40
2023-04-18T20:57:46.816Z,9.40
2023-04-18T21:02:48.802Z,9.50
2023-04-18T21:07:50.925Z,9.50
2023-04-18T21:12:52.674Z,9.50
2023-04-18T21:17:55.672Z,9.50
2023-04-18T21:22:57.504Z,9.60
2023-04-18T21:28:00.152Z,9.60
2023-04-18T21:33:02.221Z,9.50
2023-04-18T21:38:03.982Z,9.50
2023-04-18T21:43:06.025Z,9.50
2023-04-18T21:48:09.512Z,9.40
2023-04-18T21:53:11.359Z,9.50
2023-04-18T21:58:13.700Z,9.40
2023-04-18T22:03:15.808Z,9.30
2023-04-18T22:08:17.975Z,9.30
2023-04-18T22:13:19.796Z,9.20
2023-04-18T22:18:21.882Z,9.10
2023-04-18T22:23:23.714Z,9.00
2023-04-18T22:28:27.992Z,9.00
2023-04-18T22:33:29.967Z,8.90
2023-04-18T22:38:31.684Z,8.80
2023-04-18T22:43:33.569Z,8.60
2023-04-18T22:48:35.337Z,8.60
2023-04-18T22:53:37.081Z,8.60
2023-04-18T22:58:38.902Z,8.60
2023-04-18T23:03:40.943Z,8.60
2023-04-18T23:08:43.005Z,8.50
2023-04-18T23:13:44.778Z,8.60
2023-04-18T23:18:46.608Z,8.50
2023-04-18T23:23:48.378Z,8.40
2023-04-18T23:28:50.979Z,8.40
2023-04-18T23:33:53.195Z,8.30
2023-04-18T23:38:54.996Z,8.20
2023-04-18T23:43:56.930Z,8.20
2023-04-18T23:48:58.668Z,8.10
2023-04-18T23:54:00.438Z,8.00
2023-04-18T23:59:02.139Z,7.90
